Time;durP1;ratioP1;P1;durP2;ratioP2;P2;SDS_P1;SDS_P2;PMS_P1;PMS_P2;Temp;Humidity;BMP_temperature;BMP_pressure;BME280_temperature;BME280_humidity;BME280_pressure;Samples;Min_cycle;Max_cycle;Signal;HPM_P1;HPM_P2
2024/02/19 00:01:29;;;;;;;75.63;48.72;;;;;;;9.64;100.00;99283.34;6205117;22;20026;-65
2024/02/19 00:04:00;;;;;;;78.65;51.00;;;;;;;9.89;100.00;99335.91;6226902;22;20078;-65
2024/02/19 00:06:30;;;;;;;80.95;52.05;;;;;;;9.77;100.00;99325.56;6231715;22;20061;-66
2024/02/19 00:08:56;;;;;;;82.93;52.30;;;;;;;9.68;100.00;99341.06;6205372;22;20008;-67
2024/02/19 00:11:21;;;;;;;81.97;51.95;;;;;;;9.58;100.00;99335.75;6229792;22;20492;-67
2024/02/19 00:13:47;;;;;;;78.88;51.45;;;;;;;9.38;100.00;99327.75;6231234;22;20082;-67
2024/02/19 00:16:14;;;;;;;79.95;52.00;;;;;;;9.33;100.00;99334.25;6203716;22;20043;-67
2024/02/19 00:18:42;;;;;;;81.95;52.92;;;;;;;9.51;100.00;99332.81;6230595;22;20011;-65
2024/02/19 00:21:07;;;;;;;80.95;49.80;;;;;;;9.27;100.00;99304.38;6205848;22;20014;-66
2024/02/19 00:23:35;;;;;;;79.30;51.25;;;;;;;9.51;100.00;99334.56;6201527;22;20015;-65
2024/02/19 00:26:01;;;;;;;81.90;51.97;;;;;;;9.44;100.00;99336.84;6205812;22;20012;-65
2024/02/19 00:28:26;;;;;;;80.38;50.85;;;;;;;9.49;100.00;99336.47;6228578;22;20022;-64
2024/02/19 00:30:53;;;;;;;79.85;51.67;;;;;;;9.49;100.00;99326.06;6231066;22;20531;-67
2024/02/19 00:33:19;;;;;;;79.43;50.38;;;;;;;9.38;100.00;99332.94;6256264;22;20027;-65
2024/02/19 00:35:45;;;;;;;87.00;52.72;;;;;;;9.29;100.00;99331.06;6230795;22;20706;-65
2024/02/19 00:38:11;;;;;;;81.45;51.85;;;;;;;8.92;100.00;99270.81;6228862;22;20478;-65
2024/02/19 00:40:40;;;;;;;82.28;51.83;;;;;;;9.39;100.00;99328.56;6203474;22;20027;-66
2024/02/19 00:43:07;;;;;;;79.70;49.28;;;;;;;9.29;100.00;99318.09;6229751;22;20082;-67
2024/02/19 00:45:35;;;;;;;80.38;51.58;;;;;;;9.37;100.00;99317.50;6201158;22;20594;-67
2024/02/19 00:48:00;;;;;;;85.93;51.45;;;;;;;9.40;100.00;99318.09;6231066;22;20130;-65
2024/02/19 00:50:26;;;;;;;81.93;52.28;;;;;;;9.19;100.00;99312.78;6229531;22;20579;-65
2024/02/19 00:52:53;;;;;;;79.70;51.50;;;;;;;8.87;100.00;99252.16;6230984;22;20004;-64
2024/02/19 00:55:22;;;;;;;80.18;49.65;;;;;;;9.29;100.00;99304.28;6203775;22;20008;-64
2024/02/19 00:57:47;;;;;;;79.55;51.20;;;;;;;9.34;100.00;99315.13;6230382;22;20050;-66
2024/02/19 01:00:13;;;;;;;85.38;51.90;;;;;;;9.36;100.00;99314.09;6231510;22;20019;-65
2024/02/19 01:02:39;;;;;;;76.72;51.08;;;;;;;9.22;100.00;99322.09;6229594;22;20050;-66
2024/02/19 01:05:04;;;;;;;81.85;50.22;;;;;;;8.94;100.00;99267.13;6202178;22;20123;-65
2024/02/19 01:07:33;;;;;;;79.25;49.67;;;;;;;9.15;100.00;99307.97;6204861;22;20007;-64
2024/02/19 01:09:58;;;;;;;82.03;50.60;;;;;;;9.18;100.00;99297.31;6226880;22;20425;-65
2024/02/19 01:12:24;;;;;;;82.55;52.53;;;;;;;9.19;100.00;99293.78;6256370;22;20004;-65
2024/02/19 01:14:52;;;;;;;81.05;49.65;;;;;;;9.19;100.00;99299.78;6201849;22;20034;-65
2024/02/19 01:17:17;;;;;;;74.18;48.80;;;;;;;8.85;100.00;99278.22;6225249;22;20035;-65
2024/02/19 01:19:46;;;;;;;78.10;51.10;;;;;;;8.99;100.00;99284.97;6201889;22;20104;-67
2024/02/19 01:22:13;;;;;;;78.00;48.40;;;;;;;8.83;100.00;99259.38;6227050;22;20595;-65
2024/02/19 01:24:41;;;;;;;77.97;48.05;;;;;;;8.92;100.00;99300.16;6229373;22;20082;-66
2024/02/19 01:27:10;;;;;;;75.22;46.83;;;;;;;8.79;100.00;99297.66;6204122;22;20098;-65
2024/02/19 01:29:37;;;;;;;75.97;47.28;;;;;;;8.45;100.00;99279.50;6229762;22;20111;-67
2024/02/19 01:32:03;;;;;;;73.72;46.17;;;;;;;8.62;100.00;99300.72;6229462;22;20091;-66
2024/02/19 01:34:31;;;;;;;71.13;45.05;;;;;;;8.36;100.00;99243.88;6203789;22;20913;-67
2024/02/19 01:36:59;;;;;;;67.90;44.80;;;;;;;8.56;100.00;99277.84;6228502;22;20007;-64
2024/02/19 01:39:29;;;;;;;72.15;46.75;;;;;;;8.68;100.00;99283.88;6226965;22;20669;-65
2024/02/19 01:41:55;;;;;;;77.15;48.20;;;;;;;8.66;100.00;99277.03;6230157;22;20845;-67
2024/02/19 01:44:21;;;;;;;72.13;46.78;;;;;;;8.74;100.00;99281.63;6228363;22;20007;-65
2024/02/19 01:46:47;;;;;;;73.82;48.53;;;;;;;8.55;100.00;99271.03;6228841;22;20011;-65
2024/02/19 01:49:12;;;;;;;75.95;47.90;;;;;;;8.42;100.00;99271.13;6219780;22;20031;-65
2024/02/19 01:51:38;;;;;;;71.72;47.22;;;;;;;8.58;100.00;99271.63;6226343;22;20011;-65
2024/02/19 01:54:04;;;;;;;75.03;48.60;;;;;;;8.58;100.00;99271.63;6227288;22;20027;-66
2024/02/19 01:56:32;;;;;;;73.35;46.75;;;;;;;8.45;100.00;99263.09;6202361;22;20150;-66
2024/02/19 01:59:03;;;;;;;78.03;47.35;;;;;;;8.42;100.00;99263.34;6204013;22;20630;-65
2024/02/19 02:01:29;;;;;;;76.40;47.75;;;;;;;8.42;100.00;99269.34;6228312;22;20089;-67
2024/02/19 02:03:54;;;;;;;75.07;46.20;;;;;;;8.43;100.00;99254.59;6229243;22;20822;-65
2024/02/19 02:06:24;;;;;;;70.78;45.97;;;;;;;8.53;100.00;99265.13;6202045;22;20011;-65
2024/02/19 02:08:54;;;;;;;69.90;45.63;;;;;;;8.40;100.00;99252.25;6222789;23;20055;-65
2024/02/19 02:11:19;;;;;;;67.57;45.22;;;;;;;8.46;100.00;99259.56;6229714;22;20010;-65
2024/02/19 02:13:45;;;;;;;71.30;45.08;;;;;;;8.23;100.00;99254.31;6200352;22;20008;-65
2024/02/19 02:16:10;;;;;;;71.97;45.75;;;;;;;8.06;100.00;99249.53;6203196;22;20008;-67
2024/02/19 02:18:38;;;;;;;76.35;45.90;;;;;;;8.10;100.00;99245.78;6251380;22;20043;-65
2024/02/19 02:21:07;;;;;;;70.97;46.35;;;;;;;8.16;100.00;99240.16;6199226;22;20008;-64
2024/02/19 02:23:32;;;;;;;71.78;45.42;;;;;;;8.26;100.00;99248.06;6202247;22;20015;-64
2024/02/19 02:26:00;;;;;;;72.63;46.10;;;;;;;8.32;100.00;99236.44;6201514;22;20008;-64
2024/02/19 02:28:26;;;;;;;67.70;43.38;;;;;;;8.29;100.00;99227.13;6225147;22;20081;-65
2024/02/19 02:30:51;;;;;;;71.60;44.90;;;;;;;8.03;100.00;99174.66;6226093;22;20849;-64
2024/02/19 02:33:19;;;;;;;65.90;42.90;;;;;;;8.25;100.00;99226.53;6201972;22;20091;-66
2024/02/19 02:35:45;;;;;;;66.03;44.08;;;;;;;8.20;100.00;99222.63;6226874;22;20003;-66
2024/02/19 02:38:13;;;;;;;69.97;44.17;;;;;;;7.64;100.00;99192.22;6229719;22;20062;-66
2024/02/19 02:40:38;;;;;;;74.38;44.80;;;;;;;7.77;100.00;99233.56;6227940;22;20046;-66
2024/02/19 02:43:04;;;;;;;71.45;43.35;;;;;;;7.86;100.00;99241.47;6231495;22;20008;-66
2024/02/19 02:45:30;;;;;;;71.50;45.90;;;;;;;8.01;100.00;99244.72;6253514;22;20095;-65
2024/02/19 02:47:57;;;;;;;72.70;44.13;;;;;;;8.02;100.00;99235.19;6230004;22;20011;-68
2024/02/19 02:50:23;;;;;;;70.50;45.67;;;;;;;8.01;100.00;99225.75;6198286;22;20017;-65
2024/02/19 02:52:51;;;;;;;71.80;43.97;;;;;;;7.80;100.00;99191.91;6225043;22;20018;-65
2024/02/19 02:55:18;;;;;;;74.85;45.78;;;;;;;8.12;100.00;99220.59;6200582;22;20011;-65
2024/02/19 02:57:44;;;;;;;72.53;46.33;;;;;;;8.26;100.00;99222.16;6227054;22;20011;-66
2024/02/19 03:00:12;;;;;;;75.82;49.53;;;;;;;8.01;100.00;99217.97;6228357;22;20117;-64
2024/02/19 03:02:38;;;;;;;79.47;49.70;;;;;;;8.03;100.00;99209.19;6254548;22;20011;-66
2024/02/19 03:05:04;;;;;;;76.82;49.80;;;;;;;8.08;100.00;99220.00;6229635;22;20510;-66
2024/02/19 03:07:29;;;;;;;77.25;50.95;;;;;;;8.09;100.00;99211.28;6202104;22;20015;-65
2024/02/19 03:09:56;;;;;;;76.35;48.95;;;;;;;8.11;100.00;99208.59;6228907;22;20022;-64
2024/02/19 03:12:23;;;;;;;70.40;46.92;;;;;;;8.02;100.00;99204.09;6227964;22;20057;-65
2024/02/19 03:14:49;;;;;;;70.78;44.88;;;;;;;7.76;100.00;99152.50;6201202;22;20536;-65
2024/02/19 03:17:17;;;;;;;71.35;45.72;;;;;;;8.16;100.00;99200.47;6228769;22;20061;-65
2024/02/19 03:19:43;;;;;;;73.28;45.95;;;;;;;8.14;100.00;99208.38;6227211;22;20004;-67
2024/02/19 03:22:10;;;;;;;73.78;46.95;;;;;;;7.93;100.00;99194.44;6226559;22;20007;-64
2024/02/19 03:24:35;;;;;;;76.60;49.30;;;;;;;7.93;100.00;99199.59;6253790;22;20046;-67
2024/02/19 03:27:04;;;;;;;85.80;52.92;;;;;;;7.85;100.00;99197.59;6226279;22;20313;-65
2024/02/19 03:29:29;;;;;;;79.88;52.83;;;;;;;7.89;100.00;99197.22;6201681;22;20085;-66
2024/02/19 03:31:58;;;;;;;83.05;51.05;;;;;;;8.08;100.00;99198.47;6227502;22;20007;-66
2024/02/19 03:34:24;;;;;;;79.07;50.42;;;;;;;8.13;100.00;99191.16;6201639;22;20012;-67
2024/02/19 03:36:50;;;;;;;76.95;48.28;;;;;;;7.80;100.00;99140.13;6225020;22;20736;-65
2024/02/19 03:39:16;;;;;;;76.85;48.47;;;;;;;8.09;100.00;99184.56;6200201;22;20012;-67
2024/02/19 03:41:41;;;;;;;72.32;48.75;;;;;;;7.98;100.00;99187.16;6203400;22;20025;-66
2024/02/19 03:44:07;;;;;;;81.88;50.65;;;;;;;8.02;100.00;99198.91;6202460;22;20012;-67
2024/02/19 03:46:32;;;;;;;80.47;50.45;;;;;;;7.66;100.00;99139.38;6203791;22;20711;-65
2024/02/19 03:48:58;;;;;;;71.68;48.55;;;;;;;7.99;100.00;99183.59;6204429;22;20035;-65
2024/02/19 03:51:23;;;;;;;76.22;50.75;;;;;;;7.94;100.00;99186.56;6198903;22;20012;-67
2024/02/19 03:53:51;;;;;;;78.18;48.67;;;;;;;7.61;100.00;99141.50;6194516;23;20445;-64
2024/02/19 03:56:19;;;;;;;71.63;46.25;;;;;;;7.86;100.00;99181.91;6221107;23;20039;-65
2024/02/19 03:58:47;;;;;;;73.55;46.50;;;;;;;7.88;100.00;99185.25;6222496;23;20745;-65
2024/02/19 04:01:13;;;;;;;72.90;48.28;;;;;;;7.63;100.00;99193.13;6229413;22;20550;-65
2024/02/19 04:03:41;;;;;;;78.40;49.60;;;;;;;7.29;100.00;99198.97;6229163;22;20003;-65
2024/02/19 04:06:06;;;;;;;87.95;55.58;;;;;;;7.37;100.00;99179.50;6204086;22;20008;-65
2024/02/19 04:08:34;;;;;;;94.05;58.60;;;;;;;7.53;100.00;99167.09;6228206;22;20762;-67
2024/02/19 04:11:02;;;;;;;100.20;59.08;;;;;;;7.61;100.00;99156.19;6206592;22;20035;-67
2024/02/19 04:13:27;;;;;;;103.80;59.92;;;;;;;7.90;100.00;99177.34;6228019;22;20069;-65
2024/02/19 04:15:55;;;;;;;100.70;62.33;;;;;;;7.98;100.00;99184.56;6258564;22;20008;-67
2024/02/19 04:18:23;;;;;;;100.68;61.92;;;;;;;7.89;100.00;99183.47;6230544;22;20075;-64
2024/02/19 04:20:48;;;;;;;100.10;60.20;;;;;;;8.01;100.00;99185.16;6256278;22;20014;-65
2024/02/19 04:23:16;;;;;;;103.68;59.05;;;;;;;7.80;100.00;99127.19;6225298;22;20011;-65
2024/02/19 04:25:41;;;;;;;101.82;60.38;;;;;;;8.14;100.00;99185.06;6228202;22;20030;-66
2024/02/19 04:28:07;;;;;;;93.25;60.45;;;;;;;7.78;100.00;99140.25;6205570;22;20011;-65
2024/02/19 04:30:34;;;;;;;80.50;52.60;;;;;;;8.04;100.00;99197.84;6204040;22;20094;-64
2024/02/19 04:33:00;;;;;;;76.07;49.33;;;;;;;8.02;100.00;99209.28;6201967;22;20019;-65
2024/02/19 04:35:27;;;;;;;72.75;48.20;;;;;;;7.99;100.00;99201.72;6204559;22;20022;-66
2024/02/19 04:37:55;;;;;;;77.47;47.67;;;;;;;7.92;100.00;99185.81;6229470;22;20004;-67
2024/02/19 04:40:26;;;;;;;75.70;48.42;;;;;;;7.62;100.00;99150.91;6228959;22;20095;-64
2024/02/19 04:42:51;;;;;;;84.25;50.75;;;;;;;7.74;100.00;99193.19;6229750;22;19999;-65
2024/02/19 04:45:21;;;;;;;78.85;49.55;;;;;;;7.68;100.00;99196.22;6203271;22;20016;-64
2024/02/19 04:47:51;;;;;;;88.10;53.22;;;;;;;7.47;100.00;99183.91;6205023;22;20012;-65
2024/02/19 04:50:19;;;;;;;86.25;53.45;;;;;;;7.45;100.00;99185.78;6255132;22;20065;-66
2024/02/19 04:52:46;;;;;;;93.57;58.08;;;;;;;7.47;100.00;99181.31;6202452;22;20019;-67
2024/02/19 04:55:12;;;;;;;92.10;56.67;;;;;;;7.64;100.00;99192.22;6199332;22;20011;-65
2024/02/19 04:57:37;;;;;;;96.18;58.05;;;;;;;7.61;100.00;99163.94;6196025;23;20048;-65
2024/02/19 05:00:03;;;;;;;98.75;57.35;;;;;;;7.69;100.00;99190.94;6201160;22;20656;-64
2024/02/19 05:02:28;;;;;;;96.50;57.72;;;;;;;7.74;100.00;99184.59;6202257;22;20012;-66
2024/02/19 05:04:54;;;;;;;93.97;54.47;;;;;;;7.84;100.00;99191.56;6226502;22;20008;-65
2024/02/19 05:07:19;;;;;;;96.07;57.40;;;;;;;7.86;100.00;99184.50;6226539;22;20012;-65
2024/02/19 05:09:45;;;;;;;92.97;56.15;;;;;;;7.91;100.00;99181.59;6226786;22;20477;-64
2024/02/19 05:12:12;;;;;;;93.40;54.65;;;;;;;7.86;100.00;99175.91;6204564;22;20007;-65
2024/02/19 05:14:38;;;;;;;95.65;58.05;;;;;;;7.74;100.00;99182.00;6227412;22;20008;-65
2024/02/19 05:17:03;;;;;;;93.85;57.30;;;;;;;7.75;100.00;99176.72;6230908;22;20018;-64
2024/02/19 05:19:31;;;;;;;96.40;59.63;;;;;;;7.68;100.00;99167.75;6225420;22;20644;-64
2024/02/19 05:21:56;;;;;;;96.15;58.88;;;;;;;7.76;100.00;99173.19;6204717;22;20061;-65
2024/02/19 05:24:22;;;;;;;90.13;55.92;;;;;;;7.61;100.00;99130.31;6197489;22;20722;-65
2024/02/19 05:26:49;;;;;;;91.68;55.75;;;;;;;7.73;100.00;99164.81;6222534;23;20748;-66
2024/02/19 05:29:15;;;;;;;92.85;55.95;;;;;;;7.64;100.00;99166.31;6231491;22;20008;-64
2024/02/19 05:31:40;;;;;;;95.47;55.67;;;;;;;7.55;100.00;99167.00;6201449;22;20408;-65
2024/02/19 05:34:06;;;;;;;97.05;57.63;;;;;;;7.59;100.00;99171.81;6203349;22;20127;-64
2024/02/19 05:36:32;;;;;;;95.05;57.08;;;;;;;7.62;100.00;99181.16;6202192;22;20011;-64
2024/02/19 05:38:58;;;;;;;89.55;55.63;;;;;;;7.46;100.00;99146.00;6204006;22;20570;-65
2024/02/19 05:41:24;;;;;;;88.50;52.58;;;;;;;7.72;100.00;99166.59;6202977;22;20027;-64
2024/02/19 05:43:50;;;;;;;91.65;54.38;;;;;;;7.74;100.00;99166.47;6203188;22;20429;-65
2024/02/19 05:46:16;;;;;;;93.45;54.17;;;;;;;7.67;100.00;99166.09;6204127;22;20014;-64
2024/02/19 05:48:41;;;;;;;92.22;55.97;;;;;;;7.58;100.00;99174.53;6221008;23;20015;-64
2024/02/19 05:51:07;;;;;;;96.47;56.92;;;;;;;7.57;100.00;99170.28;6229751;22;20078;-64
2024/02/19 05:53:34;;;;;;;94.20;53.80;;;;;;;7.65;100.00;99173.16;6201335;22;20026;-65
2024/02/19 05:56:05;;;;;;;85.90;52.25;;;;;;;7.70;100.00;99177.06;6229567;22;20444;-65
2024/02/19 05:58:31;;;;;;;89.15;52.08;;;;;;;7.75;100.00;99168.13;6228298;22;20008;-65
2024/02/19 06:00:57;;;;;;;85.50;52.80;;;;;;;7.72;100.00;99174.38;6203600;22;20024;-65
2024/02/19 06:03:24;;;;;;;86.50;52.97;;;;;;;7.78;100.00;99173.09;6200920;22;20066;-64
2024/02/19 06:05:50;;;;;;;90.20;52.80;;;;;;;7.77;100.00;99171.44;6201435;22;20016;-66
2024/02/19 06:08:16;;;;;;;85.47;53.17;;;;;;;7.79;100.00;99175.53;6204570;22;20054;-64
2024/02/19 06:10:44;;;;;;;87.60;52.35;;;;;;;7.74;100.00;99177.66;6200886;22;20081;-68
2024/02/19 06:13:12;;;;;;;84.80;52.67;;;;;;;7.68;100.00;99178.09;6229639;22;20008;-66
2024/02/19 06:15:38;;;;;;;88.35;54.13;;;;;;;7.57;100.00;99175.47;6201936;22;20104;-69
2024/02/19 06:18:03;;;;;;;92.00;52.50;;;;;;;7.20;100.00;99132.38;6229211;22;20370;-66
2024/02/19 06:20:31;;;;;;;89.43;53.85;;;;;;;7.48;100.00;99189.91;6202068;22;20015;-67
2024/02/19 06:22:59;;;;;;;88.45;54.13;;;;;;;7.49;100.00;99173.44;6198649;22;20008;-66
2024/02/19 06:25:25;;;;;;;86.70;51.92;;;;;;;7.55;100.00;99165.22;6225758;22;20011;-65
2024/02/19 06:27:50;;;;;;;86.25;52.20;;;;;;;7.58;100.00;99180.53;6203596;22;20008;-65
2024/02/19 06:30:18;;;;;;;91.60;52.90;;;;;;;7.62;100.00;99179.38;6229517;22;20447;-67
2024/02/19 06:32:46;;;;;;;85.57;52.95;;;;;;;7.59;100.00;99173.59;6202651;22;20318;-65
2024/02/19 06:35:11;;;;;;;88.82;51.42;;;;;;;7.58;100.00;99175.38;6205132;22;20349;-65
2024/02/19 06:37:37;;;;;;;81.00;50.92;;;;;;;7.65;100.00;99197.28;6227674;22;20091;-65
2024/02/19 06:40:03;;;;;;;91.18;55.92;;;;;;;7.33;100.00;99186.66;6204194;22;20404;-64
2024/02/19 06:42:31;;;;;;;90.07;55.20;;;;;;;7.38;100.00;99194.09;6226587;22;20042;-65
2024/02/19 06:45:02;;;;;;;92.35;53.60;;;;;;;7.41;100.00;99186.09;6204066;22;20027;-66
2024/02/19 06:47:30;;;;;;;92.57;54.60;;;;;;;7.12;100.00;99137.31;6228564;22;20016;-64
2024/02/19 06:49:57;;;;;;;98.03;54.13;;;;;;;7.35;100.00;99199.47;6200894;22;20019;-66
2024/02/19 06:52:23;;;;;;;90.40;54.17;;;;;;;7.31;100.00;99194.53;6205155;22;20015;-67
2024/02/19 06:54:51;;;;;;;93.97;54.63;;;;;;;7.19;100.00;99191.97;6224694;22;20008;-67
2024/02/19 06:57:17;;;;;;;93.22;56.60;;;;;;;7.06;100.00;99141.16;6203582;22;20058;-66
2024/02/19 06:59:44;;;;;;;90.05;54.42;;;;;;;7.39;100.00;99190.56;6227558;22;20405;-67
2024/02/19 07:02:10;;;;;;;94.70;55.97;;;;;;;7.15;100.00;99180.22;6205394;22;20011;-67
2024/02/19 07:04:39;;;;;;;90.47;53.60;;;;;;;7.18;100.00;99180.00;6200907;22;20554;-68
2024/02/19 07:07:08;;;;;;;90.28;52.42;;;;;;;7.20;100.00;99178.13;6230678;22;20016;-66
2024/02/19 07:09:35;;;;;;;91.30;54.20;;;;;;;7.20;100.00;99183.31;6202936;22;20040;-65
2024/02/19 07:12:02;;;;;;;96.90;52.85;;;;;;;7.35;100.00;99178.78;6203364;22;20106;-66
2024/02/19 07:14:28;;;;;;;88.93;53.45;;;;;;;7.43;100.00;99177.31;6199398;22;20011;-66
2024/02/19 07:16:53;;;;;;;89.07;50.92;;;;;;;7.39;100.00;99177.63;6199454;22;20097;-66
2024/02/19 07:19:19;;;;;;;86.30;51.30;;;;;;;7.35;100.00;99177.00;6229844;22;20019;-65
2024/02/19 07:21:44;;;;;;;84.10;50.33;;;;;;;7.47;100.00;99168.38;6202539;22;20421;-65
2024/02/19 07:24:10;;;;;;;87.80;52.55;;;;;;;7.48;100.00;99180.41;6232024;22;20016;-66
2024/02/19 07:26:38;;;;;;;84.00;49.35;;;;;;;7.60;100.00;99176.06;6204592;22;20093;-66
2024/02/19 07:29:04;;;;;;;80.03;49.05;;;;;;;7.64;100.00;99174.09;6227613;22;20015;-68
2024/02/19 07:31:31;;;;;;;82.28;50.63;;;;;;;7.48;100.00;99188.16;6230539;22;20011;-65
2024/02/19 07:33:57;;;;;;;80.90;49.75;;;;;;;7.15;100.00;99144.00;6227407;22;20003;-67
2024/02/19 07:36:25;;;;;;;82.75;49.65;;;;;;;7.46;100.00;99208.13;6205450;22;20018;-68
2024/02/19 07:38:51;;;;;;;79.18;49.42;;;;;;;7.41;100.00;99202.47;6228909;22;20164;-66
2024/02/19 07:41:19;;;;;;;84.72;48.30;;;;;;;7.20;100.00;99206.56;6206096;22;20444;-66
2024/02/19 07:43:49;;;;;;;86.82;53.15;;;;;;;7.33;100.00;99194.41;6223603;23;20718;-65
2024/02/19 07:46:14;;;;;;;83.85;49.42;;;;;;;7.38;100.00;99188.94;6222198;22;20061;-66
2024/02/19 07:48:44;;;;;;;82.45;48.75;;;;;;;7.41;100.00;99192.13;6202384;22;20098;-66
2024/02/19 07:51:10;;;;;;;80.65;49.42;;;;;;;7.11;100.00;99144.22;6227731;22;20386;-65
2024/02/19 07:53:38;;;;;;;79.43;48.05;;;;;;;7.38;100.00;99176.00;6229288;22;20629;-67
2024/02/19 07:56:07;;;;;;;79.35;48.65;;;;;;;7.45;100.00;99177.19;6227301;22;20495;-65
2024/02/19 07:58:35;;;;;;;83.00;51.70;;;;;;;7.44;100.00;99191.88;6205009;22;20091;-67
2024/02/19 08:01:03;;;;;;;83.63;50.25;;;;;;;7.27;100.00;99192.28;6203305;22;20098;-66
2024/02/19 08:03:29;;;;;;;87.97;51.53;;;;;;;7.24;100.00;99192.47;6207958;22;20007;-67
2024/02/19 08:05:55;;;;;;;91.60;54.97;;;;;;;7.12;100.00;99195.00;6203816;22;20506;-67
2024/02/19 08:08:21;;;;;;;89.90;52.13;;;;;;;7.25;100.00;99183.81;6229555;22;20083;-66
2024/02/19 08:10:47;;;;;;;85.30;52.60;;;;;;;7.31;100.00;99173.81;6229711;22;20007;-66
2024/02/19 08:13:13;;;;;;;92.88;53.83;;;;;;;7.47;100.00;99190.84;6203561;22;20011;-67
2024/02/19 08:15:40;;;;;;;89.53;52.33;;;;;;;7.14;100.00;99140.59;6200319;22;20810;-67
2024/02/19 08:18:08;;;;;;;88.53;52.30;;;;;;;7.29;100.00;99180.06;6227105;22;20008;-66
2024/02/19 08:20:42;;;;;;;82.90;50.35;;;;;;;7.42;100.00;99177.41;6232773;22;20008;-65
2024/02/19 08:23:07;;;;;;;82.20;49.63;;;;;;;7.42;100.00;99169.66;6201692;22;20019;-66
2024/02/19 08:25:33;;;;;;;83.70;48.35;;;;;;;7.53;100.00;99169.69;6205593;22;20011;-65
2024/02/19 08:28:01;;;;;;;85.25;52.17;;;;;;;7.46;100.00;99174.47;6229000;22;20012;-66
2024/02/19 08:30:26;;;;;;;81.30;50.50;;;;;;;7.36;100.00;99183.03;6228780;22;20027;-65
2024/02/19 08:32:52;;;;;;;80.28;49.03;;;;;;;7.51;100.00;99174.16;6226052;22;20385;-67
2024/02/19 08:35:17;;;;;;;83.43;49.95;;;;;;;7.66;100.00;99175.63;6225910;22;20035;-65
2024/02/19 08:37:43;;;;;;;76.50;47.60;;;;;;;7.62;100.00;99170.78;6230419;22;20017;-67
2024/02/19 08:40:09;;;;;;;83.47;48.85;;;;;;;7.62;100.00;99160.44;6224944;22;20639;-66
2024/02/19 08:42:38;;;;;;;80.47;50.55;;;;;;;7.57;100.00;99170.28;6227703;22;20325;-67
2024/02/19 08:45:04;;;;;;;79.32;48.58;;;;;;;7.68;100.00;99176.34;6228047;22;20012;-68
2024/02/19 08:47:32;;;;;;;75.75;48.47;;;;;;;7.42;100.00;99136.00;6227700;22;20003;-64
2024/02/19 08:50:04;;;;;;;79.88;49.95;;;;;;;7.76;100.00;99180.13;6227318;22;20073;-66
2024/02/19 08:52:32;;;;;;;77.63;47.97;;;;;;;7.53;100.00;99127.47;6227734;22;20018;-67
2024/02/19 08:54:57;;;;;;;81.20;48.35;;;;;;;7.72;100.00;99166.59;6204643;22;20004;-64
2024/02/19 08:57:22;;;;;;;81.68;50.30;;;;;;;7.67;100.00;99169.50;6225432;22;19999;-66
2024/02/19 08:59:51;;;;;;;78.97;47.95;;;;;;;7.69;100.00;99167.63;6205117;22;20022;-64
2024/02/19 09:02:17;;;;;;;79.97;49.72;;;;;;;7.75;100.00;99171.53;6200868;22;20011;-65
2024/02/19 09:04:45;;;;;;;81.53;49.30;;;;;;;7.82;100.00;99175.31;6199636;23;20030;-64
2024/02/19 09:07:12;;;;;;;77.88;48.13;;;;;;;7.73;100.00;99170.00;6225537;22;20052;-64
2024/02/19 09:09:39;;;;;;;79.13;47.72;;;;;;;7.77;100.00;99176.59;6203841;22;20020;-65
2024/02/19 09:12:07;;;;;;;76.72;47.67;;;;;;;7.79;100.00;99175.53;6226561;22;20014;-64
2024/02/19 09:14:32;;;;;;;81.60;49.45;;;;;;;7.54;100.00;99170.50;6201639;22;20118;-66
2024/02/19 09:17:01;;;;;;;78.70;47.30;;;;;;;7.65;100.00;99163.63;6229435;22;20099;-64
2024/02/19 09:19:26;;;;;;;73.85;45.70;;;;;;;7.65;100.00;99168.81;6191311;22;19996;-65
2024/02/19 09:21:52;;;;;;;73.25;46.25;;;;;;;7.60;100.00;99157.13;6202888;22;20015;-66
2024/02/19 09:24:17;;;;;;;73.35;45.28;;;;;;;7.66;100.00;99161.84;6246996;22;20069;-65
2024/02/19 09:26:43;;;;;;;72.00;45.22;;;;;;;7.67;100.00;99153.16;6222360;22;20069;-64
2024/02/19 09:29:09;;;;;;;69.82;44.20;;;;;;;7.80;100.00;99153.91;6223733;22;20090;-67
2024/02/19 09:31:34;;;;;;;71.40;43.85;;;;;;;7.82;100.00;99148.63;6196252;22;20019;-64
2024/02/19 09:34:00;;;;;;;69.85;44.20;;;;;;;7.82;100.00;99151.19;6195997;22;20322;-66
2024/02/19 09:36:28;;;;;;;67.32;42.40;;;;;;;7.54;100.00;99098.06;6196995;22;20020;-66
2024/02/19 09:38:54;;;;;;;69.38;42.45;;;;;;;7.82;100.00;99144.25;6200001;22;20008;-65
2024/02/19 09:41:20;;;;;;;71.70;42.70;;;;;;;7.72;100.00;99148.47;6227305;22;20890;-64
2024/02/19 09:43:45;;;;;;;65.72;42.58;;;;;;;7.82;100.00;99139.06;6228188;22;20042;-66
2024/02/19 09:46:15;;;;;;;67.25;43.20;;;;;;;7.89;100.00;99142.03;6224145;22;20012;-65
2024/02/19 09:48:40;;;;;;;70.15;42.10;;;;;;;7.93;100.00;99142.63;6203974;22;20066;-65
2024/02/19 09:51:09;;;;;;;68.43;42.50;;;;;;;7.93;100.00;99146.03;6193034;22;20011;-67
2024/02/19 09:53:35;;;;;;;67.57;42.77;;;;;;;8.02;100.00;99142.75;6227490;22;20689;-66
2024/02/19 09:56:01;;;;;;;70.45;44.53;;;;;;;8.13;100.00;99147.13;6201488;22;20832;-66
2024/02/19 09:58:30;;;;;;;71.93;44.15;;;;;;;8.12;100.00;99142.88;6227253;22;20035;-66
2024/02/19 10:00:55;;;;;;;69.95;44.50;;;;;;;8.16;100.00;99133.97;6202365;22;20311;-66
2024/02/19 10:03:20;;;;;;;73.20;41.50;;;;;;;8.31;100.00;99147.50;6202667;22;20515;-63
2024/02/19 10:05:47;;;;;;;64.28;42.85;;;;;;;8.40;100.00;99148.59;6202838;22;20019;-66
2024/02/19 10:08:15;;;;;;;74.40;43.33;;;;;;;8.41;100.00;99150.22;6226065;22;20036;-64
2024/02/19 10:10:54;;;;;;;70.00;42.75;;;;;;;8.60;100.00;99142.72;6230732;22;20451;-64
2024/02/19 10:13:22;;;;;;;66.35;40.80;;;;;;;8.76;100.00;99142.34;6200701;22;20100;-64
2024/02/19 10:15:50;;;;;;;64.63;42.00;;;;;;;8.84;100.00;99139.97;6204274;22;20012;-65
2024/02/19 10:18:22;;;;;;;60.50;38.42;;;;;;;8.79;100.00;99104.97;6202682;22;20011;-67
2024/02/19 10:20:51;;;;;;;61.40;37.67;;;;;;;8.94;100.00;99103.75;6196331;23;20020;-64
2024/02/19 10:23:22;;;;;;;59.58;36.97;;;;;;;9.22;100.00;99140.47;6211638;23;20012;-65
2024/02/19 10:25:50;;;;;;;61.47;37.03;;;;;;;9.65;100.00;99134.38;6224235;23;20024;-67
2024/02/19 10:28:18;;;;;;;57.08;37.78;;;;;;;9.77;100.00;99128.19;6227389;22;20088;-66
2024/02/19 10:30:46;;;;;;;57.42;37.28;;;;;;;9.59;100.00;99132.28;6201410;22;20664;-66
2024/02/19 10:33:11;;;;;;;57.53;34.63;;;;;;;9.48;100.00;99083.03;6204801;22;20090;-68
2024/02/19 10:35:36;;;;;;;50.60;33.30;;;;;;;10.01;100.00;99121.91;6202749;22;20813;-66
2024/02/19 10:38:02;;;;;;;52.22;35.38;;;;;;;9.88;100.00;99093.53;6254627;22;20011;-66
2024/02/19 10:40:28;;;;;;;58.45;36.55;;;;;;;10.23;100.00;99107.09;6229796;22;20444;-66
2024/02/19 10:42:56;;;;;;;49.50;33.20;;;;;;;10.52;100.00;99125.44;6199896;22;20008;-67
2024/02/19 10:45:21;;;;;;;49.88;32.20;;;;;;;10.29;100.00;99064.97;6204997;22;20008;-65
2024/02/19 10:47:48;;;;;;;49.55;31.55;;;;;;;10.51;100.00;99113.38;6227529;22;20545;-67
2024/02/19 10:50:20;;;;;;;47.30;31.92;;;;;;;10.86;100.00;99112.09;6203236;22;20022;-68
2024/02/19 10:52:49;;;;;;;49.47;31.40;;;;;;;10.88;100.00;99113.63;6229506;22;20646;-66
2024/02/19 10:55:15;;;;;;;43.25;29.50;;;;;;;10.96;100.00;99112.94;6201881;22;20345;-64
2024/02/19 10:57:52;;;;;;;52.35;33.20;;;;;;;10.74;100.00;99101.81;6202494;22;20085;-66
2024/02/19 11:00:24;;;;;;;48.67;32.00;;;;;;;10.89;100.00;99086.63;6229937;22;20012;-64
2024/02/19 11:03:02;;;;;;;46.58;30.73;;;;;;;11.08;100.00;99096.25;6205542;22;20066;-66
2024/02/19 11:05:27;;;;;;;47.38;31.52;;;;;;;11.28;100.00;99070.22;6221015;22;20011;-64
2024/02/19 11:07:57;;;;;;;37.08;24.50;;;;;;;11.62;100.00;99069.78;6227214;22;20098;-65
2024/02/19 11:10:25;;;;;;;39.05;25.42;;;;;;;11.79;100.00;99029.97;6229991;22;20007;-66
2024/02/19 11:12:50;;;;;;;33.60;22.77;;;;;;;12.16;97.56;99031.78;6203251;22;20018;-59
2024/02/19 11:15:21;;;;;;;37.97;24.55;;;;;;;12.87;94.96;99053.75;6229385;22;20011;-65